Terminal Aerodrome Forecast
Issued by NWS Denver/Boulder, CO

Home | Current Version | Previous Version | Text Only | Print | Product List | Glossary On
Versions: 1 2 3 4 5 6 7 8 9 10 11 12 13 14 15 16 17 18 19 20 21 22 23 24 25 26 27 28 29 30 31 32 33 34 35 36 37 38 39 40 41 42 43 44 45 46 47 48 49 50
000
FTUS45 KBOU 300233 AAA
TAFDEN
TAF AMD
KDEN 300233Z 3003/3106 14011KT P6SM FEW110 BKN220
     FM300400 17009KT P6SM FEW110 BKN220
     FM300700 21007KT P6SM FEW080 SCT120 BKN200
     FM301300 VRB05KT P6SM SCT070 BKN090 BKN120
     FM301600 25007KT P6SM SCT060 BKN080 OVC120
     FM302000 01006KT P6SM SCT080 BKN110 OVC150
     FM310200 34008KT P6SM VCSH SCT030 BKN045 OVC060
      TEMPO 3103/3106 BKN025 OVC035=

USA.gov is the U.S. government's official web portal to all federal, state and local government web resources and services.